Time;durP1;ratioP1;P1;durP2;ratioP2;P2;SDS_P1;SDS_P2;PMS_P1;PMS_P2;Temp;Humidity;BMP_temperature;BMP_pressure;BME280_temperature;BME280_humidity;BME280_pressure;Samples;Min_cycle;Max_cycle;Signal;HPM_P1;HPM_P2
2024/03/30 00:00:03;;;;;;;2.42;1.33;;;7.50;99.90;;;-144.05;82.81;56944.41;5066002;28;20059;-83
2024/03/30 00:02:29;;;;;;;1.77;1.25;;;7.20;99.90;;;-144.05;83.04;56976.28;5083731;28;20020;-82
2024/03/30 00:04:56;;;;;;;1.55;0.93;;;8.50;99.90;;;-144.05;82.54;56929.53;5081978;28;20020;-83
2024/03/30 00:07:22;;;;;;;2.25;1.30;;;;;;;-144.05;83.34;56967.78;5060864;28;20077;-81
2024/03/30 00:09:50;;;;;;;1.42;1.20;;;7.30;99.90;;;-144.05;83.04;56948.66;5060059;28;20481;-82
2024/03/30 00:12:16;;;;;;;1.33;1.08;;;;;;;-144.05;83.79;56946.53;5061697;28;20037;-83
2024/03/30 00:14:44;;;;;;;1.27;0.95;;;;;;;-144.05;83.22;56952.91;5065468;28;20024;-84
2024/03/30 00:17:10;;;;;;;1.15;1.05;;;;;;;-144.05;83.34;56963.53;5049788;28;20036;-80
2024/03/30 00:19:39;;;;;;;1.08;0.93;;;10.30;99.90;;;-144.05;83.30;56948.66;5082396;28;20111;-81
2024/03/30 00:22:05;;;;;;;2.95;1.30;;;;;;;-144.05;83.51;56955.03;5056417;28;20024;-84
2024/03/30 00:24:33;;;;;;;1.40;0.88;;;14.60;99.90;;;-144.05;83.54;56961.41;5053542;28;20511;-83
2024/03/30 00:27:00;;;;;;;1.42;0.90;;;11.00;99.90;;;-144.05;83.47;56950.78;5060955;28;20024;-83
2024/03/30 00:29:26;;;;;;;1.15;0.95;;;;;;;-144.05;84.08;56948.66;5063139;28;20036;-84
2024/03/30 00:31:53;;;;;;;1.25;0.90;;;;;;;-144.05;85.14;56955.03;5062170;28;20400;-84
2024/03/30 00:34:19;;;;;;;3.38;1.42;;;;;;;-144.05;85.68;56959.28;5061756;28;20078;-80
2024/03/30 00:36:45;;;;;;;1.75;1.33;;;;;;;-144.05;86.05;56938.03;5065445;28;20175;-81
2024/03/30 00:39:12;;;;;;;1.30;1.10;;;14.10;99.90;;;-144.05;87.06;56969.91;5063150;28;20496;-82
2024/03/30 00:41:39;;;;;;;3.25;1.02;;;;;;;-144.05;86.40;56974.16;5082338;28;20048;-84
2024/03/30 00:44:05;;;;;;;2.05;1.00;;;7.60;99.90;;;-144.05;85.73;56959.28;5049358;28;20069;-82
2024/03/30 00:46:32;;;;;;;2.45;1.40;;;7.60;99.90;;;-144.05;86.29;56933.78;5062948;28;20044;-86
2024/03/30 00:48:58;;;;;;;3.92;1.50;;;7.90;99.90;;;-144.05;85.92;56918.94;5064533;28;20037;-85
2024/03/30 00:51:24;;;;;;;2.22;1.35;;;7.40;99.90;;;-144.05;86.37;56959.28;5083293;28;20074;-85
2024/03/30 00:53:50;;;;;;;1.70;1.45;;;;;;;-144.05;86.70;56938.03;5071300;28;20024;-84
2024/03/30 00:56:16;;;;;;;1.95;1.40;;;7.10;99.90;;;-144.05;86.74;56906.19;5061088;28;20024;-84
2024/03/30 00:58:42;;;;;;;3.58;1.38;;;;;;;-144.05;87.12;56948.66;5065829;28;20024;-86
2024/03/30 01:01:09;;;;;;;2.58;2.03;;;7.50;99.90;;;-144.05;87.20;56969.91;5081477;28;20097;-82
2024/03/30 01:03:35;;;;;;;3.00;2.00;;;;;;;-144.05;87.88;56933.78;5082193;28;20048;-84
2024/03/30 01:06:02;;;;;;;3.65;1.50;;;;;;;-144.05;88.12;56938.03;5064682;28;20028;-83
2024/03/30 01:08:27;;;;;;;2.60;1.25;;;7.30;99.90;;;-144.05;88.32;56948.66;5086730;28;20082;-82
2024/03/30 01:11:01;;;;;;;2.47;1.50;;;7.40;99.90;;;-144.05;88.66;56948.66;5067805;28;20028;-82
2024/03/30 01:13:27;;;;;;;4.07;1.55;;;8.10;99.90;;;-144.05;88.81;56952.91;5062546;28;20031;-84
2024/03/30 01:15:54;;;;;;;5.05;1.80;;;11.10;99.90;;;-144.05;89.08;56933.78;5058713;28;20017;-83
2024/03/30 01:18:21;;;;;;;1.98;1.50;;;14.10;99.90;;;-144.05;89.67;56950.78;5087626;28;20032;-83
2024/03/30 01:20:50;;;;;;;1.58;1.30;;;14.50;99.90;;;-144.05;89.87;56940.16;5080645;28;20097;-81
2024/03/30 01:23:26;;;;;;;2.47;1.17;;;7.00;99.90;;;-144.05;89.84;56955.03;5078651;28;20040;-82
2024/03/30 01:25:53;;;;;;;2.10;1.60;;;7.00;99.90;;;-144.05;90.39;56969.91;5063749;28;20484;-83
2024/03/30 01:28:21;;;;;;;1.88;1.40;;;;;;;-144.05;90.42;56933.78;5063991;28;20052;-83
2024/03/30 01:30:47;;;;;;;2.47;1.67;;;7.70;99.90;;;-144.05;90.69;56948.66;5053840;28;20059;-82
2024/03/30 01:33:13;;;;;;;2.03;1.75;;;;;;;-144.05;90.90;56959.28;5073966;28;20052;-84
2024/03/30 01:35:40;;;;;;;3.33;2.20;;;;;;;-144.05;91.23;56974.16;5084787;28;20024;-83
2024/03/30 01:38:06;;;;;;;4.00;1.95;;;;;;;-144.05;91.09;56955.03;5061145;28;20028;-82
2024/03/30 01:40:34;;;;;;;3.25;2.13;;;9.70;99.90;;;-144.05;91.41;56969.91;5084298;28;20052;-81
2024/03/30 01:43:03;;;;;;;3.00;2.28;;;;;;;-144.05;91.27;56948.66;5063911;28;20032;-82
2024/03/30 01:45:36;;;;;;;2.55;2.35;;;7.70;99.90;;;-144.05;91.27;56972.03;5074599;28;20021;-82
2024/03/30 01:48:10;;;;;;;2.47;1.67;;;14.40;99.90;;;-144.05;91.46;56944.41;5063671;28;20409;-83
2024/03/30 01:50:41;;;;;;;3.80;2.20;;;14.10;99.90;;;-144.05;91.53;56938.03;5083270;28;20043;-83
2024/03/30 01:53:12;;;;;;;2.97;2.22;;;7.50;99.90;;;-144.05;91.71;56976.28;5051737;28;20031;-83
2024/03/30 01:55:42;;;;;;;3.42;2.25;;;9.80;99.90;;;-144.05;92.00;56935.91;5082937;28;20107;-83
2024/03/30 01:58:17;;;;;;;3.10;2.17;;;9.70;99.90;;;-144.05;91.56;56961.41;5060289;28;20358;-83
2024/03/30 02:00:45;;;;;;;2.97;2.45;;;8.50;99.90;;;-144.05;92.01;56972.03;5062223;28;20033;-83
2024/03/30 02:03:12;;;;;;;5.53;3.03;;;9.70;99.90;;;-144.05;92.13;56938.03;5080122;28;20036;-82
2024/03/30 02:05:38;;;;;;;3.25;2.17;;;7.60;99.90;;;-144.05;92.28;56944.41;5065106;28;20040;-81
2024/03/30 02:08:09;;;;;;;2.10;1.85;;;7.30;99.90;;;-144.05;92.96;56948.66;5053777;28;20029;-81
2024/03/30 02:10:37;;;;;;;3.53;2.45;;;11.20;99.90;;;-144.05;92.96;56967.78;5068515;28;20115;-82
2024/03/30 02:13:05;;;;;;;5.63;2.40;;;11.10;99.90;;;-144.05;93.05;56948.66;5053719;28;20025;-81
2024/03/30 02:15:32;;;;;;;4.65;2.40;;;;;;;-144.05;93.65;56957.16;5063823;28;20478;-82
2024/03/30 02:17:59;;;;;;;3.42;2.22;;;;;;;-144.05;93.37;56978.41;5061605;28;20461;-83
2024/03/30 02:20:25;;;;;;;4.28;2.20;;;7.50;99.90;;;-144.05;93.79;56969.91;5066749;28;20082;-81
2024/03/30 02:22:53;;;;;;;5.20;2.45;;;9.60;99.90;;;-144.05;93.32;56950.78;5080172;28;20032;-83
2024/03/30 02:25:20;;;;;;;3.58;2.03;;;9.60;99.90;;;-144.05;93.50;56967.78;5057184;28;20032;-83
2024/03/30 02:27:50;;;;;;;3.47;2.30;;;7.10;99.90;;;-144.05;93.19;56950.78;5068688;28;20032;-84
2024/03/30 02:30:28;;;;;;;7.63;2.00;;;9.60;99.90;;;-144.05;92.76;56948.66;5069498;28;20055;-85
2024/03/30 02:32:57;;;;;;;4.90;2.40;;;6.80;99.90;;;-144.05;92.75;56957.16;5056025;28;20024;-82
2024/03/30 02:35:25;;;;;;;4.07;2.60;;;;;;;-144.05;92.94;56967.78;5062976;28;20470;-82
2024/03/30 02:37:53;;;;;;;4.05;2.92;;;;;;;-144.05;93.55;56965.66;5074039;28;20035;-82
2024/03/30 02:40:22;;;;;;;4.03;2.70;;;7.60;99.90;;;-144.05;93.59;56950.78;5055333;28;20082;-82
2024/03/30 02:42:49;;;;;;;3.35;2.17;;;14.40;99.90;;;-144.05;92.83;56955.03;5062568;28;20497;-82
2024/03/30 02:45:15;;;;;;;4.47;2.33;;;13.90;99.90;;;-144.05;93.00;56963.53;5061307;28;20039;-83
2024/03/30 02:47:42;;;;;;;3.17;2.63;;;9.50;99.90;;;-144.05;92.39;56982.66;5064359;28;20031;-82
2024/03/30 02:50:08;;;;;;;3.95;2.60;;;8.50;99.90;;;-144.05;92.39;56957.16;5061763;28;20068;-84
2024/03/30 02:52:34;;;;;;;5.32;2.92;;;;;;;-144.05;92.61;56976.28;5063348;28;20056;-83
2024/03/30 02:55:00;;;;;;;4.53;2.53;;;7.30;99.90;;;-144.05;92.25;56959.28;5059051;28;20534;-84
2024/03/30 02:57:26;;;;;;;4.57;2.72;;;7.00;99.90;;;-144.05;92.60;56955.03;5059230;28;20119;-82
2024/03/30 02:59:52;;;;;;;6.85;3.00;;;7.50;99.90;;;-144.05;92.42;56972.03;5060361;28;20059;-85
2024/03/30 03:02:18;;;;;;;3.92;2.65;;;7.10;99.90;;;-144.05;92.85;56961.41;5079045;28;20028;-84
2024/03/30 03:04:44;;;;;;;5.35;3.33;;;7.60;99.90;;;-144.05;92.67;56957.16;5061734;28;20020;-82
2024/03/30 03:07:11;;;;;;;3.90;3.28;;;;;;;-144.05;92.61;56978.41;5058635;28;20066;-84
2024/03/30 03:09:37;;;;;;;5.28;2.55;;;;;;;-144.05;92.14;56978.41;5086138;28;20533;-82
2024/03/30 03:12:04;;;;;;;3.78;2.83;;;;;;;-144.05;92.28;56955.03;5079149;28;20119;-83
2024/03/30 03:14:30;;;;;;;4.03;3.10;;;7.30;99.90;;;-144.05;92.46;56948.66;5053983;28;20560;-83
2024/03/30 03:16:56;;;;;;;5.40;2.70;;;;;;;-144.05;92.48;56965.66;5055020;28;20024;-83
2024/03/30 03:19:22;;;;;;;3.22;2.72;;;8.10;99.90;;;-144.05;92.24;56948.66;5060938;28;20033;-82
2024/03/30 03:21:48;;;;;;;4.55;2.72;;;;;;;-144.05;92.61;56974.16;5061004;28;20047;-83
2024/03/30 03:24:14;;;;;;;3.15;2.60;;;7.40;99.90;;;-144.05;92.28;56946.53;5056828;28;20029;-83
2024/03/30 03:26:40;;;;;;;3.30;2.67;;;;;;;-144.05;92.09;56933.78;5079090;28;20036;-82
2024/03/30 03:29:06;;;;;;;4.00;3.03;;;7.70;99.90;;;-144.05;91.91;56963.53;5058023;28;20024;-82
2024/03/30 03:31:32;;;;;;;4.10;2.90;;;7.30;99.90;;;-144.05;91.61;56952.91;5047106;28;20478;-83
2024/03/30 03:33:58;;;;;;;4.93;3.20;;;7.50;99.90;;;-144.05;91.88;56946.53;5062271;28;20028;-82
2024/03/30 03:36:27;;;;;;;4.78;3.70;;;9.00;99.90;;;-144.05;91.89;56967.78;5062923;28;20035;-82
2024/03/30 03:38:53;;;;;;;3.55;2.78;;;11.20;99.90;;;-144.05;92.03;56959.28;5068515;28;20028;-82
2024/03/30 03:41:19;;;;;;;2.97;2.67;;;7.80;99.90;;;-144.05;91.97;56963.53;5059163;28;20165;-82
2024/03/30 03:43:44;;;;;;;6.70;2.78;;;8.00;99.90;;;-144.05;91.82;56950.78;5083994;28;20028;-82
2024/03/30 03:46:12;;;;;;;4.75;3.33;;;;;;;-144.05;91.48;56946.53;5061326;28;20064;-83
2024/03/30 03:48:38;;;;;;;3.47;3.08;;;7.10;99.90;;;-144.05;91.38;56942.28;5084629;28;20451;-82
2024/03/30 03:51:04;;;;;;;5.75;3.45;;;;;;;-144.05;91.33;56982.66;5056598;28;20028;-83
2024/03/30 03:53:30;;;;;;;7.35;3.72;;;7.30;99.90;;;-144.05;91.46;56959.28;5074239;28;20044;-84
2024/03/30 03:55:56;;;;;;;4.75;3.75;;;;;;;-144.05;91.60;56980.53;5066502;28;20020;-83
2024/03/30 03:58:22;;;;;;;5.30;4.05;;;14.10;99.90;;;-144.05;91.50;56959.28;5059758;28;20203;-82
2024/03/30 04:00:48;;;;;;;4.85;3.47;;;7.20;99.90;;;-144.05;91.59;56972.03;5058064;28;20036;-82
2024/03/30 04:03:15;;;;;;;5.72;3.88;;;7.30;99.90;;;-144.05;91.84;56969.91;5065034;28;20050;-81
2024/03/30 04:05:41;;;;;;;4.47;3.50;;;7.90;99.90;;;-144.05;91.97;56957.16;5083719;28;20025;-79
2024/03/30 04:08:08;;;;;;;4.97;4.38;;;;;;;-144.05;92.18;56950.78;5091164;28;20032;-85
2024/03/30 04:10:34;;;;;;;4.60;3.58;;;;;;;-144.05;92.08;56965.66;5066864;28;20133;-83
2024/03/30 04:13:00;;;;;;;6.47;4.30;;;7.60;99.90;;;-144.05;92.28;56946.53;5059313;28;20056;-80
2024/03/30 04:15:26;;;;;;;5.90;4.43;;;;;;;-144.05;92.34;56965.66;5076730;28;20071;-81
2024/03/30 04:17:52;;;;;;;5.35;4.15;;;7.40;99.90;;;-144.05;92.15;56967.78;5059859;28;20606;-84
2024/03/30 04:20:18;;;;;;;4.25;3.85;;;7.60;99.90;;;-144.05;91.98;56961.41;5055925;28;20055;-82
2024/03/30 04:22:45;;;;;;;4.53;3.75;;;;;;;-144.05;91.69;56955.03;5071807;28;20040;-83
2024/03/30 04:25:11;;;;;;;5.63;4.05;;;;;;;-144.05;92.07;56963.53;5046929;28;20137;-82
2024/03/30 04:27:37;;;;;;;5.25;4.32;;;7.00;99.90;;;-144.05;92.59;56942.28;5057793;28;20025;-83
2024/03/30 04:30:07;;;;;;;4.82;4.00;;;14.00;99.90;;;-144.05;92.53;56967.78;5054999;28;20453;-82
2024/03/30 04:32:33;;;;;;;5.32;4.05;;;7.60;99.90;;;-144.05;92.23;56957.16;5068773;28;20554;-84
2024/03/30 04:34:59;;;;;;;5.75;4.05;;;7.30;99.90;;;-144.05;91.96;56957.16;5071054;28;20029;-83
2024/03/30 04:37:25;;;;;;;6.25;3.78;;;7.30;99.90;;;-144.05;91.93;56976.28;5057854;28;20078;-83
2024/03/30 04:39:51;;;;;;;4.32;3.80;;;10.90;99.90;;;-144.05;91.94;56944.41;5077570;28;20032;-84
2024/03/30 04:42:17;;;;;;;4.80;3.42;;;7.00;99.90;;;-144.05;91.93;56963.53;5056054;28;20526;-82
2024/03/30 04:44:43;;;;;;;6.03;3.97;;;;;;;-144.05;92.08;56999.63;5055992;28;20060;-83
2024/03/30 04:47:10;;;;;;;4.57;3.67;;;;;;;-144.05;92.21;56965.66;5056193;28;20120;-83
2024/03/30 04:49:36;;;;;;;4.85;3.63;;;7.70;99.90;;;-144.05;92.52;56955.03;5056136;28;20493;-82
2024/03/30 04:52:02;;;;;;;5.47;3.83;;;7.30;99.90;;;-144.05;92.18;56980.53;5058009;28;20042;-82
2024/03/30 04:54:29;;;;;;;5.25;3.83;;;7.30;99.90;;;-144.05;92.23;56942.28;5076373;28;20033;-83
2024/03/30 04:56:56;;;;;;;4.90;3.63;;;10.80;99.90;;;-144.05;92.42;56965.66;5070527;28;20024;-83
2024/03/30 04:59:22;;;;;;;5.68;3.85;;;10.90;99.90;;;-144.05;92.64;56967.78;5067199;28;20024;-84
2024/03/30 05:01:47;;;;;;;4.85;4.05;;;7.20;99.90;;;-144.05;92.71;56950.78;5059860;28;20405;-81
2024/03/30 05:04:13;;;;;;;6.35;4.05;;;7.50;99.90;;;-144.05;92.55;56955.03;5064040;28;20063;-84
2024/03/30 05:06:41;;;;;;;3.92;3.35;;;7.80;99.90;;;-144.05;92.72;56942.28;5060921;28;20175;-82
2024/03/30 05:09:07;;;;;;;7.72;3.28;;;7.60;99.90;;;-144.05;92.43;56944.41;5069513;28;20092;-82
2024/03/30 05:11:33;;;;;;;7.22;3.90;;;7.90;99.90;;;-144.05;92.47;56955.03;5062482;28;20450;-83
2024/03/30 05:13:58;;;;;;;6.22;3.88;;;8.10;99.90;;;-144.05;92.36;56974.16;5077871;28;20024;-80
2024/03/30 05:16:25;;;;;;;4.38;3.53;;;;;;;-144.05;92.72;56963.53;5062606;28;20040;-84
2024/03/30 05:18:51;;;;;;;4.05;3.40;;;8.50;99.90;;;-144.05;92.62;56955.03;5078704;28;20032;-83
2024/03/30 05:21:16;;;;;;;4.68;3.60;;;7.10;99.90;;;-144.05;92.71;56957.16;5057139;28;20027;-84
2024/03/30 05:23:45;;;;;;;6.90;4.20;;;7.80;99.90;;;-144.05;92.53;56980.53;5060104;28;20029;-84
2024/03/30 05:26:11;;;;;;;4.43;3.40;;;;;;;-144.05;92.80;56961.41;5063387;28;20036;-81
2024/03/30 05:28:37;;;;;;;6.03;3.55;;;11.00;99.90;;;-144.05;92.54;56982.66;5058692;28;20025;-82
2024/03/30 05:31:22;;;;;;;4.32;2.92;;;7.40;99.90;;;-144.05;92.66;56972.03;5076227;28;20024;-81
2024/03/30 05:33:48;;;;;;;4.07;3.40;;;10.70;99.90;;;-144.05;92.59;56982.66;5058281;28;20166;-83
2024/03/30 05:36:17;;;;;;;4.88;3.75;;;8.80;99.90;;;-144.05;92.93;56931.66;5068131;28;20041;-79
2024/03/30 05:38:43;;;;;;;5.10;3.90;;;7.10;99.90;;;-144.05;92.85;56972.03;5064027;28;20028;-82
2024/03/30 05:41:10;;;;;;;6.28;3.75;;;;;;;-144.05;92.39;56959.28;5071090;28;20020;-82
2024/03/30 05:43:36;;;;;;;4.85;3.45;;;7.90;99.90;;;-144.05;92.62;56965.66;5069838;28;20036;-83
2024/03/30 05:46:02;;;;;;;7.60;3.50;;;7.10;99.90;;;-144.05;92.24;56959.28;5079289;28;20029;-85
2024/03/30 05:48:28;;;;;;;4.53;3.10;;;7.20;99.90;;;-144.05;92.04;56942.28;5104090;28;20036;-84
2024/03/30 05:50:54;;;;;;;7.18;3.50;;;7.20;99.90;;;-144.05;92.26;56972.03;5084383;28;20027;-82
2024/03/30 05:53:20;;;;;;;3.85;3.03;;;10.50;99.90;;;-144.05;92.13;56969.91;5067244;28;20024;-83
2024/03/30 05:55:46;;;;;;;5.53;3.40;;;7.40;99.90;;;-144.05;91.93;56961.41;5086850;28;20027;-82
2024/03/30 05:58:15;;;;;;;5.25;3.15;;;;;;;-144.05;91.58;56982.66;5077878;28;20028;-82
2024/03/30 06:00:41;;;;;;;4.07;3.33;;;7.80;99.90;;;-144.05;91.60;56950.78;5061842;28;20081;-82
2024/03/30 06:03:07;;;;;;;5.45;3.60;;;13.80;99.90;;;-144.05;91.37;56969.91;5060667;28;20024;-83
2024/03/30 06:05:37;;;;;;;5.57;3.50;;;8.00;99.90;;;-144.05;91.19;56952.91;5062817;28;20445;-84
2024/03/30 06:08:04;;;;;;;5.75;3.17;;;8.10;99.90;;;-144.05;91.12;56965.66;5046682;28;20473;-82
2024/03/30 06:10:30;;;;;;;4.38;3.28;;;7.60;99.90;;;-144.05;90.59;56940.16;5058429;28;20043;-82
2024/03/30 06:12:57;;;;;;;4.15;3.40;;;;;;;-144.05;90.21;56963.53;5063515;28;20024;-84
2024/03/30 06:15:23;;;;;;;4.20;2.83;;;7.40;99.90;;;-144.05;90.29;56969.91;5062826;28;20493;-84
2024/03/30 06:17:49;;;;;;;3.72;2.90;;;;;;;-144.05;90.07;56942.28;5083083;28;20029;-82
2024/03/30 06:20:15;;;;;;;6.20;3.17;;;7.80;99.90;;;-144.05;89.82;56948.66;5065747;28;20039;-82
2024/03/30 06:22:41;;;;;;;6.95;3.88;;;;;;;-144.05;90.05;56935.91;5076332;28;20020;-81
2024/03/30 06:25:07;;;;;;;5.22;2.97;;;7.50;99.90;;;-144.05;89.55;56944.41;5060346;28;20032;-83
2024/03/30 06:27:34;;;;;;;4.00;3.25;;;8.10;99.90;;;-144.05;89.51;56955.03;5082980;28;20013;-81
2024/03/30 06:30:01;;;;;;;4.78;2.95;;;7.40;99.90;;;-144.05;89.86;56963.53;5083193;28;20031;-84
2024/03/30 06:32:27;;;;;;;4.28;3.67;;;14.00;99.90;;;-144.05;89.64;56957.16;5059905;28;20143;-84
2024/03/30 06:34:53;;;;;;;5.38;3.08;;;;;;;-144.05;89.49;56955.03;5081708;28;20023;-81
2024/03/30 06:37:19;;;;;;;5.10;3.42;;;11.00;99.90;;;-144.05;89.16;56952.91;5056806;28;20021;-82
2024/03/30 06:45:14;;;;;;;5.50;3.85;;;7.40;99.90;;;-144.05;88.75;56955.03;5080028;28;20043;-80
2024/03/30 06:47:40;;;;;;;3.75;3.38;;;14.20;99.90;;;-144.05;89.00;56974.16;5059717;28;20036;-81
2024/03/30 06:50:08;;;;;;;4.32;2.95;;;7.80;99.90;;;-144.05;88.25;56955.03;5061307;28;20119;-83
2024/03/30 06:52:34;;;;;;;4.00;3.25;;;;;;;-144.05;88.06;56950.78;5061989;28;20028;-82
2024/03/30 06:55:00;;;;;;;5.47;3.88;;;14.30;99.90;;;-144.05;87.90;56965.66;5081448;28;20029;-85
2024/03/30 06:57:26;;;;;;;5.38;3.28;;;;;;;-144.05;87.81;56927.41;5068408;28;20039;-85
2024/03/30 06:59:52;;;;;;;3.58;3.00;;;;;;;-144.05;87.58;56959.28;5063038;28;20043;-84
2024/03/30 07:02:19;;;;;;;4.35;3.20;;;;;;;-144.05;87.62;56918.94;5062440;28;20425;-84
2024/03/30 07:04:45;;;;;;;5.85;3.13;;;;;;;-144.05;87.58;56940.16;5062220;28;20031;-84
2024/03/30 07:07:11;;;;;;;4.38;3.42;;;7.40;99.90;;;-144.05;87.52;56963.53;5079472;28;20032;-83
2024/03/30 07:09:37;;;;;;;5.47;3.22;;;7.90;99.90;;;-144.05;87.00;56938.03;5053828;28;20486;-81
2024/03/30 07:12:03;;;;;;;4.40;3.35;;;14.50;99.90;;;-144.05;86.50;56933.78;5069157;28;20474;-83
2024/03/30 07:14:30;;;;;;;3.95;3.47;;;;;;;-144.05;86.32;56963.53;5085783;28;20025;-84
2024/03/30 07:17:00;;;;;;;4.97;3.55;;;7.50;99.90;;;-144.05;85.82;56972.03;5060507;28;20028;-84
2024/03/30 07:19:26;;;;;;;3.80;3.17;;;7.30;99.90;;;-144.05;85.64;56925.28;5060596;28;20124;-83
2024/03/30 07:21:52;;;;;;;3.85;3.03;;;;;;;-144.05;85.24;56965.66;5063322;28;20060;-83
2024/03/30 07:24:19;;;;;;;4.75;3.20;;;;;;;-144.05;85.14;56963.53;5069978;28;20029;-85
2024/03/30 07:26:45;;;;;;;4.15;3.38;;;13.70;99.90;;;-144.05;85.01;56944.41;5076448;28;20059;-83
2024/03/30 07:29:11;;;;;;;4.90;3.33;;;14.60;99.90;;;-144.05;84.86;56950.78;5061004;28;20057;-83
2024/03/30 07:31:38;;;;;;;7.30;3.65;;;;;;;-144.05;84.72;56948.66;5060477;28;20024;-81
2024/03/30 07:34:04;;;;;;;5.97;3.47;;;;;;;-144.05;85.09;56952.91;5049142;28;20123;-82
2024/03/30 07:36:30;;;;;;;5.20;3.53;;;8.50;99.90;;;-144.05;84.71;56963.53;5055217;28;20044;-82
2024/03/30 07:38:57;;;;;;;5.45;3.78;;;14.00;99.90;;;-144.05;85.05;56916.81;5059817;28;20101;-83
2024/03/30 07:41:23;;;;;;;7.45;5.10;;;7.60;99.90;;;-144.05;84.57;56925.28;5058708;28;20084;-82
2024/03/30 07:43:49;;;;;;;11.20;7.60;;;;;;;-144.05;84.57;56944.41;5078177;28;20067;-80
2024/03/30 07:46:15;;;;;;;10.00;6.85;;;;;;;-144.05;84.65;56959.28;5077400;28;20025;-80
2024/03/30 07:48:41;;;;;;;14.10;8.23;;;7.90;99.90;;;-144.05;84.57;56942.28;5076573;28;20036;-80
2024/03/30 07:51:07;;;;;;;9.90;7.70;;;;;;;-144.05;84.68;56942.28;5084354;28;20032;-80
2024/03/30 07:53:33;;;;;;;9.38;7.45;;;7.90;99.90;;;-144.05;84.88;56942.28;5087244;28;20376;-81
2024/03/30 07:55:59;;;;;;;11.02;8.57;;;7.80;99.90;;;-144.05;85.15;56933.78;5070759;28;20037;-81
2024/03/30 07:58:24;;;;;;;12.52;9.23;;;14.30;99.90;;;-144.05;84.86;56967.78;5087176;28;20028;-79
2024/03/30 08:00:50;;;;;;;13.75;9.77;;;7.90;99.90;;;-144.05;85.14;56952.91;5081253;28;20028;-81
2024/03/30 08:03:16;;;;;;;13.70;10.25;;;;;;;-144.05;85.21;56929.53;5075870;28;20416;-79
2024/03/30 08:05:58;;;;;;;12.77;9.55;;;8.60;99.90;;;-144.05;85.05;56957.16;5076462;28;20214;-86
2024/03/30 08:08:24;;;;;;;13.18;10.52;;;;;;;-144.05;84.56;56948.66;5058490;28;20517;-83
2024/03/30 08:10:50;;;;;;;13.52;10.52;;;8.90;99.90;;;-144.05;84.34;56952.91;5057704;28;20028;-80
2024/03/30 08:13:17;;;;;;;16.25;9.30;;;7.50;99.90;;;-144.05;84.40;56963.53;5057681;28;20444;-80
2024/03/30 08:15:45;;;;;;;9.93;8.40;;;7.30;99.90;;;-144.05;84.22;56940.16;5056658;28;20409;-83
2024/03/30 08:18:12;;;;;;;12.45;7.75;;;;;;;-144.05;84.03;56955.03;5056475;28;20096;-84
2024/03/30 08:20:38;;;;;;;10.75;7.80;;;7.80;99.90;;;-144.05;84.34;56963.53;5063625;28;20040;-79
2024/03/30 08:23:04;;;;;;;12.30;6.85;;;7.10;99.90;;;-144.05;84.06;56950.78;5074012;28;20417;-84
2024/03/30 08:25:30;;;;;;;9.20;6.47;;;7.50;99.90;;;-144.05;84.03;56961.41;5056109;28;20028;-82
2024/03/30 08:27:56;;;;;;;10.50;5.93;;;7.70;99.90;;;-144.05;84.46;56948.66;5074846;28;20111;-86
2024/03/30 08:30:22;;;;;;;10.23;5.75;;;;;;;-144.05;83.82;56955.03;5057845;28;20082;-84
2024/03/30 08:32:50;;;;;;;6.70;5.50;;;8.70;99.90;;;-144.05;83.02;56948.66;5076580;28;20033;-86
2024/03/30 08:35:16;;;;;;;11.68;5.40;;;7.70;99.90;;;-144.05;83.12;56938.03;5058746;28;20036;-84
2024/03/30 08:37:42;;;;;;;9.60;5.40;;;7.90;99.90;;;-144.05;82.54;56944.41;5076836;28;20024;-83
2024/03/30 08:40:09;;;;;;;8.23;4.97;;;8.10;99.90;;;-144.05;81.56;56963.53;5075800;28;20044;-82
2024/03/30 08:42:35;;;;;;;5.60;4.57;;;;;;;-144.05;80.66;56942.28;5076755;28;20047;-83
2024/03/30 08:45:01;;;;;;;7.53;3.95;;;;;;;-144.05;79.99;56944.41;5077871;28;20029;-81
2024/03/30 08:47:27;;;;;;;7.97;3.83;;;;;;;-144.05;79.29;56942.28;5051235;28;20402;-83
2024/03/30 08:49:54;;;;;;;4.75;3.65;;;;;;;-144.05;78.40;56929.53;5064956;28;20116;-83
2024/03/30 08:52:21;;;;;;;6.63;3.60;;;;;;;-144.05;77.65;56931.66;5075719;28;20033;-81
2024/03/30 08:54:50;;;;;;;8.35;3.97;;;9.10;99.90;;;-144.05;76.62;56914.69;5058855;28;20028;-81
2024/03/30 08:57:16;;;;;;;6.03;3.20;;;10.00;99.90;;;-144.05;76.58;56965.66;5070820;28;20037;-83
2024/03/30 08:59:42;;;;;;;8.25;3.78;;;;;;;-144.05;75.13;56912.56;5071570;28;20029;-83
2024/03/30 09:02:08;;;;;;;5.60;3.60;;;;;;;-144.05;74.36;56946.53;5075505;28;20028;-85
2024/03/30 09:04:34;;;;;;;6.90;3.50;;;;;;;-144.05;73.18;56935.91;5081212;28;20029;-85
2024/03/30 09:07:03;;;;;;;5.70;3.38;;;;;;;-144.05;72.19;56952.91;5056846;28;20032;-84
2024/03/30 09:09:29;;;;;;;9.18;3.22;;;;;;;-144.05;71.21;56938.03;5057324;28;20397;-83
2024/03/30 09:11:57;;;;;;;10.57;3.88;;;;;;;-144.05;68.42;56933.78;5072430;28;20032;-82
2024/03/30 09:14:23;;;;;;;8.13;3.78;;;;;;;-144.05;66.81;56955.03;5038252;28;20029;-85
2024/03/30 09:16:49;;;;;;;11.30;3.60;;;;;;;-144.05;67.09;56969.91;5047644;28;20040;-83
2024/03/30 09:19:16;;;;;;;11.07;4.18;;;;;;;-144.05;66.27;56933.78;5060051;28;20025;-83
2024/03/30 09:21:44;;;;;;;8.25;3.25;;;;;;;-144.05;66.23;56946.53;5068017;28;20059;-82
2024/03/30 09:24:10;;;;;;;9.55;3.85;;;17.10;99.90;;;-144.05;65.30;56957.16;5067522;28;20055;-84
2024/03/30 09:26:36;;;;;;;11.68;2.95;;;;;;;-144.05;64.69;56942.28;5066487;28;20035;-84
2024/03/30 09:29:02;;;;;;;16.13;2.92;;;;;;;-144.05;62.61;56961.41;5076159;28;20025;-84
2024/03/30 09:31:29;;;;;;;18.55;3.63;;;;;;;-144.05;54.05;56933.78;5074623;28;20048;-82
2024/03/30 09:33:54;;;;;;;22.63;4.05;;;18.70;99.90;;;-144.05;52.33;56961.41;5090628;28;20043;-83
2024/03/30 09:36:20;;;;;;;19.83;3.50;;;14.50;99.90;;;-144.05;52.07;56952.91;5082514;28;20021;-81
2024/03/30 09:38:46;;;;;;;20.67;3.78;;;;;;;-144.05;50.84;56963.53;5094614;28;20012;-77
2024/03/30 09:41:19;;;;;;;24.10;3.50;;;18.70;99.90;;;-144.05;49.98;56991.13;5078750;28;20051;-85
2024/03/30 09:43:45;;;;;;;37.65;4.60;;;14.50;99.90;;;-144.05;48.90;56948.66;5081453;28;20032;-81
2024/03/30 09:46:13;;;;;;;29.88;3.80;;;18.30;99.90;;;-144.05;47.33;56972.03;5094933;28;20506;-82
2024/03/30 09:48:43;;;;;;;31.05;4.93;;;17.80;99.90;;;-144.05;46.14;56948.66;5069164;28;20086;-85
2024/03/30 09:51:13;;;;;;;32.90;4.20;;;17.80;99.90;;;-144.05;45.76;56946.53;5093584;28;20027;-84
2024/03/30 09:53:41;;;;;;;31.02;4.10;;;;;;;-144.05;45.42;56952.91;5092386;28;20028;-80
2024/03/30 09:56:10;;;;;;;30.13;4.18;;;14.70;99.90;;;-144.05;44.17;56948.66;5085265;28;20032;-81
2024/03/30 09:58:37;;;;;;;23.08;4.03;;;14.60;99.90;;;-144.05;43.21;56963.53;5082708;28;20031;-84
2024/03/30 10:01:05;;;;;;;28.42;4.15;;;19.30;99.90;;;-144.05;43.34;56967.78;5100045;28;20111;-85
2024/03/30 10:03:31;;;;;;;32.47;4.88;;;;;;;-144.05;43.13;56972.03;5070809;28;20023;-82
2024/03/30 10:06:05;;;;;;;29.95;4.68;;;15.10;99.90;;;-144.05;41.60;56972.03;5105486;28;20043;-80
2024/03/30 10:08:36;;;;;;;34.33;5.00;;;18.20;99.90;;;-144.05;42.06;56978.41;5082598;28;20027;-83
2024/03/30 10:11:10;;;;;;;35.08;5.32;;;14.90;99.90;;;-144.05;40.75;56972.03;5103493;28;20063;-87
2024/03/30 10:13:53;;;;;;;34.03;5.15;;;14.80;99.90;;;-144.05;39.75;56957.16;5074856;28;20024;-86
2024/03/30 10:16:20;;;;;;;38.72;5.78;;;;;;;-144.05;39.44;56952.91;5066884;28;20108;-83
2024/03/30 10:18:49;;;;;;;40.17;5.22;;;18.50;99.90;;;-144.05;39.05;56959.28;5089836;28;20028;-83
2024/03/30 10:21:17;;;;;;;41.25;5.95;;;;;;;-144.05;39.12;56969.91;5075587;28;20024;-80
2024/03/30 10:23:46;;;;;;;40.10;6.85;;;18.60;99.70;;;-144.05;38.54;56978.41;5081416;28;20032;-81
2024/03/30 10:26:17;;;;;;;42.25;5.00;;;19.40;99.90;;;-144.05;38.72;56961.41;5059355;28;20029;-81
2024/03/30 10:28:44;;;;;;;44.50;5.03;;;15.10;99.70;;;-144.05;38.44;56974.16;5073580;28;20089;-83
2024/03/30 10:31:11;;;;;;;38.90;5.90;;;15.20;99.40;;;-144.05;38.52;56976.28;5094902;28;20370;-85
2024/03/30 10:33:38;;;;;;;33.55;5.25;;;20.00;99.90;;;-144.05;37.76;56950.78;5086721;28;20020;-84